sensor_id;sensor_type;location;lat;lon;timestamp;pressure;altitude;pressure_sealevel;temperature;humidity
32298;BME280;18782;48.984;8.548;2023-02-15T00:01:40;101448.63;;;1.82;98.82
32298;BME280;18782;48.984;8.548;2023-02-15T00:04:10;101446.63;;;1.78;99.05
32298;BME280;18782;48.984;8.548;2023-02-15T00:23:06;101436.47;;;1.78;98.31
32298;BME280;18782;48.984;8.548;2023-02-15T00:25:33;101428.59;;;1.75;98.01
32298;BME280;18782;48.984;8.548;2023-02-15T00:28:01;101431.50;;;1.70;98.10
32298;BME280;18782;48.984;8.548;2023-02-15T00:30:28;101427.59;;;1.63;98.89
32298;BME280;18782;48.984;8.548;2023-02-15T00:32:56;101422.25;;;1.60;99.23
32298;BME280;18782;48.984;8.548;2023-02-15T00:35:24;101426.94;;;1.66;99.13
32298;BME280;18782;48.984;8.548;2023-02-15T00:37:51;101430.91;;;1.72;98.58
32298;BME280;18782;48.984;8.548;2023-02-15T00:40:21;101432.91;;;1.76;98.83
32298;BME280;18782;48.984;8.548;2023-02-15T00:42:48;101424.00;;;1.81;98.50
32298;BME280;18782;48.984;8.548;2023-02-15T00:45:16;101427.31;;;1.80;98.48
32298;BME280;18782;48.984;8.548;2023-02-15T00:47:44;101418.72;;;1.78;98.62
32298;BME280;18782;48.984;8.548;2023-02-15T00:50:11;101421.97;;;1.77;98.84
32298;BME280;18782;48.984;8.548;2023-02-15T00:52:39;101421.97;;;1.77;98.49
32298;BME280;18782;48.984;8.548;2023-02-15T00:55:07;101430.50;;;1.78;98.35
32298;BME280;18782;48.984;8.548;2023-02-15T00:57:36;101431.25;;;1.77;98.33
32298;BME280;18782;48.984;8.548;2023-02-15T01:00:04;101425.28;;;1.76;98.28
32298;BME280;18782;48.984;8.548;2023-02-15T01:02:32;101432.13;;;1.77;98.49
32298;BME280;18782;48.984;8.548;2023-02-15T01:05:01;101429.75;;;1.79;98.63
32298;BME280;18782;48.984;8.548;2023-02-15T01:07:28;101427.97;;;1.78;98.65
32298;BME280;18782;48.984;8.548;2023-02-15T01:09:58;101426.56;;;1.71;97.72
32298;BME280;18782;48.984;8.548;2023-02-15T01:12:26;101420.09;;;1.65;98.87
32298;BME280;18782;48.984;8.548;2023-02-15T01:14:55;101416.94;;;1.67;98.92
32298;BME280;18782;48.984;8.548;2023-02-15T01:25:05;101438.50;;;1.72;98.54
32298;BME280;18782;48.984;8.548;2023-02-15T01:27:33;101426.56;;;1.71;97.86
32298;BME280;18782;48.984;8.548;2023-02-15T01:30:05;101432.38;;;1.60;97.90
32298;BME280;18782;48.984;8.548;2023-02-15T01:32:35;101433.03;;;1.58;98.98
32298;BME280;18782;48.984;8.548;2023-02-15T01:35:03;101423.88;;;1.60;99.71
32298;BME280;18782;48.984;8.548;2023-02-15T01:37:32;101428.34;;;1.72;99.06
32298;BME280;18782;48.984;8.548;2023-02-15T01:39:59;101432.66;;;1.73;98.84
32298;BME280;18782;48.984;8.548;2023-02-15T01:42:28;101433.06;;;1.78;99.14
32298;BME280;18782;48.984;8.548;2023-02-15T01:44:57;101424.66;;;1.79;98.65
32298;BME280;18782;48.984;8.548;2023-02-15T01:47:32;101426.06;;;1.86;98.04
32298;BME280;18782;48.984;8.548;2023-02-15T01:50:08;101424.50;;;1.88;98.07
32298;BME280;18782;48.984;8.548;2023-02-15T01:52:40;101422.38;;;1.82;97.05
32298;BME280;18782;48.984;8.548;2023-02-15T01:55:10;101419.09;;;1.73;97.67
32298;BME280;18782;48.984;8.548;2023-02-15T01:57:39;101414.63;;;1.70;98.35
32298;BME280;18782;48.984;8.548;2023-02-15T02:00:08;101402.97;;;1.72;98.78
32298;BME280;18782;48.984;8.548;2023-02-15T02:02:42;101409.06;;;1.64;98.18
32298;BME280;18782;48.984;8.548;2023-02-15T02:05:11;101403.97;;;1.64;98.79
32298;BME280;18782;48.984;8.548;2023-02-15T02:07:41;101395.59;;;1.65;98.95
32298;BME280;18782;48.984;8.548;2023-02-15T02:10:11;101400.94;;;1.58;98.37
32298;BME280;18782;48.984;8.548;2023-02-15T02:12:40;101391.53;;;1.57;97.81
32298;BME280;18782;48.984;8.548;2023-02-15T02:15:09;101390.13;;;1.50;98.18
32298;BME280;18782;48.984;8.548;2023-02-15T02:17:46;101389.00;;;1.37;97.72
32298;BME280;18782;48.984;8.548;2023-02-15T02:20:26;101391.38;;;1.35;98.68
32298;BME280;18782;48.984;8.548;2023-02-15T02:23:08;101392.41;;;1.37;99.21
32298;BME280;18782;48.984;8.548;2023-02-15T02:28:54;101383.72;;;1.15;98.31
32298;BME280;18782;48.984;8.548;2023-02-15T02:34:45;101380.56;;;1.07;100.00
32298;BME280;18782;48.984;8.548;2023-02-15T02:37:24;101386.78;;;1.11;100.00
32298;BME280;18782;48.984;8.548;2023-02-15T02:40:01;101382.84;;;1.14;100.00
32298;BME280;18782;48.984;8.548;2023-02-15T02:42:35;101381.09;;;1.23;99.25
32298;BME280;18782;48.984;8.548;2023-02-15T02:45:08;101378.56;;;1.23;100.00
32298;BME280;18782;48.984;8.548;2023-02-15T02:47:40;101371.06;;;1.25;100.00
32298;BME280;18782;48.984;8.548;2023-02-15T02:50:13;101367.53;;;1.33;99.71
32298;BME280;18782;48.984;8.548;2023-02-15T02:52:44;101369.69;;;1.28;98.29
32298;BME280;18782;48.984;8.548;2023-02-15T02:55:15;101364.38;;;1.25;98.94
32298;BME280;18782;48.984;8.548;2023-02-15T02:57:52;101363.63;;;1.26;99.05
32298;BME280;18782;48.984;8.548;2023-02-15T03:00:22;101366.91;;;1.25;99.45
32298;BME280;18782;48.984;8.548;2023-02-15T03:02:54;101368.78;;;1.18;99.62
32298;BME280;18782;48.984;8.548;2023-02-15T03:05:27;101361.06;;;1.16;99.95
32298;BME280;18782;48.984;8.548;2023-02-15T03:07:58;101351.13;;;1.09;99.05
32298;BME280;18782;48.984;8.548;2023-02-15T03:10:27;101352.94;;;1.10;99.79
32298;BME280;18782;48.984;8.548;2023-02-15T03:12:57;101360.03;;;1.14;99.61
32298;BME280;18782;48.984;8.548;2023-02-15T03:15:29;101363.81;;;1.09;98.52
32298;BME280;18782;48.984;8.548;2023-02-15T03:18:22;101357.34;;;1.02;98.31
32298;BME280;18782;48.984;8.548;2023-02-15T03:20:55;101356.19;;;0.99;98.73
32298;BME280;18782;48.984;8.548;2023-02-15T03:23:24;101358.22;;;0.93;99.10
32298;BME280;18782;48.984;8.548;2023-02-15T03:25:57;101357.56;;;0.85;99.53
32298;BME280;18782;48.984;8.548;2023-02-15T03:28:32;101349.56;;;0.81;99.45
32298;BME280;18782;48.984;8.548;2023-02-15T03:31:05;101358.69;;;0.78;99.07
32298;BME280;18782;48.984;8.548;2023-02-15T03:33:35;101357.41;;;0.73;99.72
32298;BME280;18782;48.984;8.548;2023-02-15T03:36:11;101350.44;;;0.81;99.02
32298;BME280;18782;48.984;8.548;2023-02-15T03:38:49;101347.31;;;0.84;99.65
32298;BME280;18782;48.984;8.548;2023-02-15T03:41:19;101351.84;;;0.88;100.00
32298;BME280;18782;48.984;8.548;2023-02-15T03:43:54;101358.97;;;0.92;99.62
32298;BME280;18782;48.984;8.548;2023-02-15T03:46:24;101360.75;;;0.93;98.94
32298;BME280;18782;48.984;8.548;2023-02-15T03:48:57;101359.84;;;0.92;99.95
32298;BME280;18782;48.984;8.548;2023-02-15T03:51:31;101361.63;;;0.93;99.33
32298;BME280;18782;48.984;8.548;2023-02-15T03:54:07;101361.38;;;0.90;99.28
32298;BME280;18782;48.984;8.548;2023-02-15T03:56:38;101348.56;;;0.89;99.89
32298;BME280;18782;48.984;8.548;2023-02-15T03:59:06;101359.75;;;0.91;99.98
32298;BME280;18782;48.984;8.548;2023-02-15T04:02:01;101357.19;;;0.91;100.00
32298;BME280;18782;48.984;8.548;2023-02-15T04:04:33;101359.09;;;0.93;99.86
32298;BME280;18782;48.984;8.548;2023-02-15T04:07:05;101362.28;;;0.91;99.34
32298;BME280;18782;48.984;8.548;2023-02-15T04:09:33;101367.72;;;0.85;99.11
32298;BME280;18782;48.984;8.548;2023-02-15T04:12:19;101365.28;;;0.87;99.77
32298;BME280;18782;48.984;8.548;2023-02-15T04:14:46;101366.56;;;0.82;98.96
32298;BME280;18782;48.984;8.548;2023-02-15T04:17:32;101370.34;;;0.76;99.01
32298;BME280;18782;48.984;8.548;2023-02-15T04:19:59;101366.63;;;0.73;100.00
32298;BME280;18782;48.984;8.548;2023-02-15T04:22:46;101365.03;;;0.73;100.00
32298;BME280;18782;48.984;8.548;2023-02-15T04:25:31;101362.81;;;0.68;100.00
32298;BME280;18782;48.984;8.548;2023-02-15T04:27:59;101364.25;;;0.74;100.00
32298;BME280;18782;48.984;8.548;2023-02-15T04:30:26;101361.44;;;0.71;100.00
32298;BME280;18782;48.984;8.548;2023-02-15T04:32:54;101359.34;;;0.57;99.43
32298;BME280;18782;48.984;8.548;2023-02-15T04:35:23;101358.88;;;0.61;100.00
32298;BME280;18782;48.984;8.548;2023-02-15T04:37:53;101357.09;;;0.60;100.00
32298;BME280;18782;48.984;8.548;2023-02-15T04:40:22;101355.22;;;0.58;100.00
32298;BME280;18782;48.984;8.548;2023-02-15T04:42:49;101346.56;;;0.56;99.75
32298;BME280;18782;48.984;8.548;2023-02-15T04:45:17;101350.75;;;0.55;100.00
32298;BME280;18782;48.984;8.548;2023-02-15T04:47:45;101352.00;;;0.50;99.39
32298;BME280;18782;48.984;8.548;2023-02-15T04:50:12;101348.44;;;0.48;100.00
32298;BME280;18782;48.984;8.548;2023-02-15T04:52:40;101347.22;;;0.53;100.00
32298;BME280;18782;48.984;8.548;2023-02-15T04:55:09;101348.00;;;0.33;100.00
32298;BME280;18782;48.984;8.548;2023-02-15T04:57:36;101343.81;;;0.34;100.00
32298;BME280;18782;48.984;8.548;2023-02-15T05:00:06;101349.00;;;0.35;100.00
32298;BME280;18782;48.984;8.548;2023-02-15T05:02:34;101347.13;;;0.33;100.00
32298;BME280;18782;48.984;8.548;2023-02-15T05:05:02;101345.47;;;0.33;100.00
32298;BME280;18782;48.984;8.548;2023-02-15T05:07:30;101343.28;;;0.28;100.00
32298;BME280;18782;48.984;8.548;2023-02-15T05:09:57;101342.06;;;0.33;100.00
32298;BME280;18782;48.984;8.548;2023-02-15T05:12:26;101334.97;;;0.39;100.00
32298;BME280;18782;48.984;8.548;2023-02-15T05:14:54;101337.03;;;0.43;100.00
32298;BME280;18782;48.984;8.548;2023-02-15T05:17:21;101345.59;;;0.35;100.00
32298;BME280;18782;48.984;8.548;2023-02-15T05:19:49;101342.59;;;0.39;100.00
32298;BME280;18782;48.984;8.548;2023-02-15T05:22:16;101343.19;;;0.36;100.00
32298;BME280;18782;48.984;8.548;2023-02-15T05:24:44;101335.81;;;0.29;100.00
32298;BME280;18782;48.984;8.548;2023-02-15T05:27:30;101345.06;;;0.29;100.00
32298;BME280;18782;48.984;8.548;2023-02-15T05:30:15;101339.47;;;0.22;100.00
32298;BME280;18782;48.984;8.548;2023-02-15T05:32:43;101344.00;;;0.16;100.00
32298;BME280;18782;48.984;8.548;2023-02-15T05:35:13;101344.59;;;0.14;100.00
32298;BME280;18782;48.984;8.548;2023-02-15T05:37:41;101351.53;;;0.06;100.00
32298;BME280;18782;48.984;8.548;2023-02-15T05:40:09;101349.91;;;0.07;100.00
32298;BME280;18782;48.984;8.548;2023-02-15T05:42:38;101347.38;;;0.07;100.00
32298;BME280;18782;48.984;8.548;2023-02-15T05:45:07;101339.59;;;0.05;100.00
32298;BME280;18782;48.984;8.548;2023-02-15T05:47:34;101349.72;;;0.05;100.00
32298;BME280;18782;48.984;8.548;2023-02-15T05:50:02;101344.13;;;-0.01;100.00
32298;BME280;18782;48.984;8.548;2023-02-15T05:52:29;101345.19;;;0.01;100.00
32298;BME280;18782;48.984;8.548;2023-02-15T05:54:57;101358.09;;;0.04;100.00
32298;BME280;18782;48.984;8.548;2023-02-15T05:57:26;101347.97;;;0.04;100.00
32298;BME280;18782;48.984;8.548;2023-02-15T05:59:55;101355.63;;;0.14;100.00
32298;BME280;18782;48.984;8.548;2023-02-15T06:06:36;101359.63;;;0.02;100.00
32298;BME280;18782;48.984;8.548;2023-02-15T06:09:03;101362.56;;;0.07;100.00
32298;BME280;18782;48.984;8.548;2023-02-15T06:11:31;101358.09;;;0.04;100.00
32298;BME280;18782;48.984;8.548;2023-02-15T06:13:58;101364.69;;;0.02;100.00
32298;BME280;18782;48.984;8.548;2023-02-15T06:16:27;101369.19;;;-0.04;100.00
32298;BME280;18782;48.984;8.548;2023-02-15T06:18:55;101374.25;;;-0.04;100.00
32298;BME280;18782;48.984;8.548;2023-02-15T06:21:22;101380.47;;;-0.01;100.00
32298;BME280;18782;48.984;8.548;2023-02-15T06:23:50;101382.31;;;-0.08;100.00
32298;BME280;18782;48.984;8.548;2023-02-15T06:26:17;101378.22;;;-0.16;100.00
32298;BME280;18782;48.984;8.548;2023-02-15T06:28:45;101382.72;;;-0.22;100.00
32298;BME280;18782;48.984;8.548;2023-02-15T06:31:13;101380.66;;;-0.27;100.00
32298;BME280;18782;48.984;8.548;2023-02-15T06:33:42;101384.78;;;-0.18;100.00
32298;BME280;18782;48.984;8.548;2023-02-15T06:36:09;101390.44;;;-0.21;100.00
32298;BME280;18782;48.984;8.548;2023-02-15T06:38:37;101392.97;;;-0.21;100.00
32298;BME280;18782;48.984;8.548;2023-02-15T06:41:04;101398.44;;;-0.16;100.00
32298;BME280;18782;48.984;8.548;2023-02-15T06:43:32;101397.38;;;-0.10;100.00
32298;BME280;18782;48.984;8.548;2023-02-15T06:46:00;101394.06;;;0.10;100.00
32298;BME280;18782;48.984;8.548;2023-02-15T06:48:28;101392.84;;;0.15;100.00
32298;BME280;18782;48.984;8.548;2023-02-15T06:50:57;101401.00;;;0.21;100.00
32298;BME280;18782;48.984;8.548;2023-02-15T06:53:25;101393.72;;;0.35;100.00
32298;BME280;18782;48.984;8.548;2023-02-15T06:55:52;101403.19;;;0.56;100.00
32298;BME280;18782;48.984;8.548;2023-02-15T06:58:20;101403.47;;;0.59;100.00
32298;BME280;18782;48.984;8.548;2023-02-15T07:00:48;101398.13;;;0.56;100.00
32298;BME280;18782;48.984;8.548;2023-02-15T07:03:15;101404.19;;;0.48;98.98
32298;BME280;18782;48.984;8.548;2023-02-15T07:05:43;101401.13;;;0.42;99.13
32298;BME280;18782;48.984;8.548;2023-02-15T07:08:13;101402.38;;;0.47;99.88
32298;BME280;18782;48.984;8.548;2023-02-15T07:10:43;101395.13;;;0.60;98.59
32298;BME280;18782;48.984;8.548;2023-02-15T07:13:11;101395.41;;;0.63;97.21
32298;BME280;18782;48.984;8.548;2023-02-15T07:15:37;101393.81;;;0.55;98.08
32298;BME280;18782;48.984;8.548;2023-02-15T07:18:05;101398.75;;;0.54;98.51
32298;BME280;18782;48.984;8.548;2023-02-15T07:20:33;101392.69;;;0.62;99.00
32298;BME280;18782;48.984;8.548;2023-02-15T07:23:03;101399.75;;;0.74;99.51
32298;BME280;18782;48.984;8.548;2023-02-15T07:25:33;101399.69;;;0.64;98.79
32298;BME280;18782;48.984;8.548;2023-02-15T07:28:03;101405.25;;;0.60;99.00
32298;BME280;18782;48.984;8.548;2023-02-15T07:30:30;101398.66;;;0.62;99.15
32298;BME280;18782;48.984;8.548;2023-02-15T07:32:59;101407.78;;;0.60;98.79
32298;BME280;18782;48.984;8.548;2023-02-15T07:35:47;101397.88;;;0.53;98.76
32298;BME280;18782;48.984;8.548;2023-02-15T07:38:15;101396.63;;;0.58;99.17
32298;BME280;18782;48.984;8.548;2023-02-15T07:40:44;101404.97;;;0.57;98.27
32298;BME280;18782;48.984;8.548;2023-02-15T07:43:13;101407.31;;;0.64;98.41
32298;BME280;18782;48.984;8.548;2023-02-15T07:45:40;101403.53;;;0.69;98.06
32298;BME280;18782;48.984;8.548;2023-02-15T07:48:08;101398.97;;;0.75;97.77
32298;BME280;18782;48.984;8.548;2023-02-15T07:50:36;101402.91;;;0.82;97.97
32298;BME280;18782;48.984;8.548;2023-02-15T07:53:04;101392.19;;;0.85;97.36
32298;BME280;18782;48.984;8.548;2023-02-15T07:55:31;101397.75;;;0.91;98.19
32298;BME280;18782;48.984;8.548;2023-02-15T07:58:00;101402.38;;;1.05;99.38
32298;BME280;18782;48.984;8.548;2023-02-15T08:00:28;101392.09;;;1.14;98.79
32298;BME280;18782;48.984;8.548;2023-02-15T08:02:57;101396.06;;;1.10;96.19
32298;BME280;18782;48.984;8.548;2023-02-15T08:05:44;101396.28;;;1.13;95.36
32298;BME280;18782;48.984;8.548;2023-02-15T08:08:12;101393.63;;;1.12;95.75
32298;BME280;18782;48.984;8.548;2023-02-15T08:11:00;101399.59;;;1.12;96.31
32298;BME280;18782;48.984;8.548;2023-02-15T08:13:48;101393.25;;;1.17;96.18
32298;BME280;18782;48.984;8.548;2023-02-15T08:16:23;101390.34;;;1.13;95.48
32298;BME280;18782;48.984;8.548;2023-02-15T08:18:58;101390.84;;;1.19;95.50
32298;BME280;18782;48.984;8.548;2023-02-15T08:21:27;101390.25;;;1.21;95.98
32298;BME280;18782;48.984;8.548;2023-02-15T08:23:57;101385.69;;;1.27;95.41
32298;BME280;18782;48.984;8.548;2023-02-15T08:26:26;101381.00;;;1.42;95.15
32298;BME280;18782;48.984;8.548;2023-02-15T08:28:56;101383.94;;;1.47;94.46
32298;BME280;18782;48.984;8.548;2023-02-15T08:31:24;101379.84;;;1.49;94.38
32298;BME280;18782;48.984;8.548;2023-02-15T08:33:53;101376.06;;;1.54;93.79
32298;BME280;18782;48.984;8.548;2023-02-15T08:36:23;101377.81;;;1.55;94.02
32298;BME280;18782;48.984;8.548;2023-02-15T08:38:50;101375.16;;;1.53;94.09
32298;BME280;18782;48.984;8.548;2023-02-15T08:41:20;101372.25;;;1.59;94.57
32298;BME280;18782;48.984;8.548;2023-02-15T08:43:49;101366.91;;;1.56;93.14
32298;BME280;18782;48.984;8.548;2023-02-15T08:46:20;101372.63;;;1.43;92.90
32298;BME280;18782;48.984;8.548;2023-02-15T08:48:49;101372.22;;;1.28;92.38
32298;BME280;18782;48.984;8.548;2023-02-15T08:51:20;101368.41;;;1.23;93.33
32298;BME280;18782;48.984;8.548;2023-02-15T08:53:50;101371.09;;;1.45;92.34
32298;BME280;18782;48.984;8.548;2023-02-15T08:56:19;101367.66;;;1.55;92.35
32298;BME280;18782;48.984;8.548;2023-02-15T08:58:50;101372.25;;;1.59;92.54
32298;BME280;18782;48.984;8.548;2023-02-15T09:01:20;101374.00;;;1.70;92.62
32298;BME280;18782;48.984;8.548;2023-02-15T09:03:49;101370.72;;;1.71;92.85
32298;BME280;18782;48.984;8.548;2023-02-15T09:06:19;101366.66;;;1.63;92.37
32298;BME280;18782;48.984;8.548;2023-02-15T09:08:47;101365.41;;;1.48;92.87
32298;BME280;18782;48.984;8.548;2023-02-15T09:11:16;101361.59;;;1.43;94.86
32298;BME280;18782;48.984;8.548;2023-02-15T09:13:51;101357.53;;;1.55;94.07
32298;BME280;18782;48.984;8.548;2023-02-15T09:16:21;101361.81;;;1.66;93.75
32298;BME280;18782;48.984;8.548;2023-02-15T09:18:50;101356.13;;;1.48;92.96
32298;BME280;18782;48.984;8.548;2023-02-15T09:21:20;101351.56;;;1.44;93.44
32298;BME280;18782;48.984;8.548;2023-02-15T09:23:50;101350.28;;;1.60;93.22
32298;BME280;18782;48.984;8.548;2023-02-15T09:26:22;101352.56;;;1.67;92.77
32298;BME280;18782;48.984;8.548;2023-02-15T09:28:52;101349.38;;;1.79;92.99
32298;BME280;18782;48.984;8.548;2023-02-15T09:31:24;101344.31;;;1.79;91.91
32298;BME280;18782;48.984;8.548;2023-02-15T09:33:53;101344.53;;;1.82;92.04
32298;BME280;18782;48.984;8.548;2023-02-15T09:36:23;101349.78;;;1.84;91.43
32298;BME280;18782;48.984;8.548;2023-02-15T09:38:54;101341.78;;;1.79;91.38
32298;BME280;18782;48.984;8.548;2023-02-15T09:41:50;101341.72;;;2.10;92.19
32298;BME280;18782;48.984;8.548;2023-02-15T09:44:33;101347.03;;;2.13;90.74
32298;BME280;18782;48.984;8.548;2023-02-15T09:47:22;101349.88;;;1.86;89.59
32298;BME280;18782;48.984;8.548;2023-02-15T09:50:03;101349.59;;;2.03;89.51
32298;BME280;18782;48.984;8.548;2023-02-15T09:52:41;101355.81;;;2.06;89.37
32298;BME280;18782;48.984;8.548;2023-02-15T09:55:24;101353.34;;;2.18;88.41
32298;BME280;18782;48.984;8.548;2023-02-15T09:58:05;101343.16;;;2.28;88.65
32298;BME280;18782;48.984;8.548;2023-02-15T10:00:40;101353.56;;;2.42;88.90
32298;BME280;18782;48.984;8.548;2023-02-15T10:03:21;101345.41;;;2.46;88.01
32298;BME280;18782;48.984;8.548;2023-02-15T10:06:03;101352.22;;;2.57;87.22
32298;BME280;18782;48.984;8.548;2023-02-15T10:08:56;101352.00;;;2.44;87.50
32298;BME280;18782;48.984;8.548;2023-02-15T10:11:42;101349.94;;;2.50;87.24
32298;BME280;18782;48.984;8.548;2023-02-15T10:14:34;101347.97;;;2.46;86.93
32298;BME280;18782;48.984;8.548;2023-02-15T10:17:25;101353.53;;;2.52;86.34
32298;BME280;18782;48.984;8.548;2023-02-15T10:20:09;101354.47;;;2.64;86.68
32298;BME280;18782;48.984;8.548;2023-02-15T10:22:56;101357.75;;;2.73;85.69
32298;BME280;18782;48.984;8.548;2023-02-15T10:25:30;101362.53;;;2.80;86.74
32298;BME280;18782;48.984;8.548;2023-02-15T10:28:03;101351.06;;;2.85;85.59
32298;BME280;18782;48.984;8.548;2023-02-15T10:30:41;101346.84;;;2.86;87.18
32298;BME280;18782;48.984;8.548;2023-02-15T10:33:20;101344.78;;;3.14;88.82
32298;BME280;18782;48.984;8.548;2023-02-15T10:36:02;101341.22;;;3.12;87.52
32298;BME280;18782;48.984;8.548;2023-02-15T10:38:36;101344.78;;;3.14;86.69
32298;BME280;18782;48.984;8.548;2023-02-15T10:41:17;101344.22;;;3.18;86.13
32298;BME280;18782;48.984;8.548;2023-02-15T10:44:17;101340.63;;;3.26;84.90
32298;BME280;18782;48.984;8.548;2023-02-15T10:47:03;101341.78;;;3.42;84.17
32298;BME280;18782;48.984;8.548;2023-02-15T10:49:58;101340.66;;;3.50;84.74
32298;BME280;18782;48.984;8.548;2023-02-15T10:52:42;101343.13;;;3.60;82.72
32298;BME280;18782;48.984;8.548;2023-02-15T10:55:24;101335.38;;;3.58;82.17
32298;BME280;18782;48.984;8.548;2023-02-15T10:58:03;101331.16;;;3.47;84.23
32298;BME280;18782;48.984;8.548;2023-02-15T11:00:37;101333.50;;;3.56;84.08
32298;BME280;18782;48.984;8.548;2023-02-15T11:06:04;101336.63;;;3.63;82.77
32298;BME280;18782;48.984;8.548;2023-02-15T11:08:38;101336.28;;;3.59;82.01
32298;BME280;18782;48.984;8.548;2023-02-15T11:11:08;101334.75;;;3.61;81.52
32298;BME280;18782;48.984;8.548;2023-02-15T11:13:40;101336.50;;;3.62;82.29
32298;BME280;18782;48.984;8.548;2023-02-15T11:16:13;101325.00;;;3.55;82.25
32298;BME280;18782;48.984;8.548;2023-02-15T11:18:48;101326.41;;;3.52;83.68
32298;BME280;18782;48.984;8.548;2023-02-15T11:21:21;101322.13;;;3.62;83.56
32298;BME280;18782;48.984;8.548;2023-02-15T11:23:51;101318.59;;;3.72;82.42
32298;BME280;18782;48.984;8.548;2023-02-15T11:26:23;101311.75;;;3.83;82.79
32298;BME280;18782;48.984;8.548;2023-02-15T11:28:56;101313.75;;;3.87;83.20
32298;BME280;18782;48.984;8.548;2023-02-15T11:31:40;101308.06;;;3.91;82.44
32298;BME280;18782;48.984;8.548;2023-02-15T11:34:14;101302.22;;;4.04;81.22
32298;BME280;18782;48.984;8.548;2023-02-15T11:36:47;101300.44;;;4.03;81.43
32298;BME280;18782;48.984;8.548;2023-02-15T11:39:19;101298.31;;;3.85;81.38
32298;BME280;18782;48.984;8.548;2023-02-15T11:41:51;101298.22;;;3.72;81.00
32298;BME280;18782;48.984;8.548;2023-02-15T11:44:23;101287.56;;;3.54;81.87
32298;BME280;18782;48.984;8.548;2023-02-15T11:46:52;101276.63;;;3.67;82.54
32298;BME280;18782;48.984;8.548;2023-02-15T11:49:24;101278.06;;;3.75;82.13
32298;BME280;18782;48.984;8.548;2023-02-15T11:51:55;101274.72;;;3.64;82.35
32298;BME280;18782;48.984;8.548;2023-02-15T11:54:27;101273.19;;;3.66;82.03
32298;BME280;18782;48.984;8.548;2023-02-15T11:56:56;101263.84;;;3.44;83.27
32298;BME280;18782;48.984;8.548;2023-02-15T11:59:29;101264.34;;;3.16;84.53
32298;BME280;18782;48.984;8.548;2023-02-15T12:01:59;101257.88;;;3.43;84.74
32298;BME280;18782;48.984;8.548;2023-02-15T12:04:30;101263.66;;;3.40;84.94
32298;BME280;18782;48.984;8.548;2023-02-15T12:07:03;101255.69;;;3.59;84.16
32298;BME280;18782;48.984;8.548;2023-02-15T12:09:45;101243.09;;;3.61;83.91
32298;BME280;18782;48.984;8.548;2023-02-15T12:12:23;101239.66;;;3.72;84.36
32298;BME280;18782;48.984;8.548;2023-02-15T12:14:53;101243.50;;;3.90;84.13
32298;BME280;18782;48.984;8.548;2023-02-15T12:17:23;101233.00;;;3.98;81.27
32298;BME280;18782;48.984;8.548;2023-02-15T12:19:52;101232.28;;;4.12;82.70
32298;BME280;18782;48.984;8.548;2023-02-15T12:22:24;101238.81;;;4.20;83.34
32298;BME280;18782;48.984;8.548;2023-02-15T12:24:56;101239.94;;;4.12;81.97
32298;BME280;18782;48.984;8.548;2023-02-15T12:27:27;101225.34;;;3.98;83.36
32298;BME280;18782;48.984;8.548;2023-02-15T12:29:59;101228.69;;;3.73;84.13
32298;BME280;18782;48.984;8.548;2023-02-15T12:32:29;101223.34;;;3.70;83.61
32298;BME280;18782;48.984;8.548;2023-02-15T12:35:01;101226.44;;;4.01;84.10
32298;BME280;18782;48.984;8.548;2023-02-15T12:37:34;101226.44;;;4.13;84.06
32298;BME280;18782;48.984;8.548;2023-02-15T12:40:20;101223.75;;;4.23;83.79
32298;BME280;18782;48.984;8.548;2023-02-15T12:42:48;101228.44;;;4.05;82.89
32298;BME280;18782;48.984;8.548;2023-02-15T12:45:24;101220.19;;;4.21;82.00
32298;BME280;18782;48.984;8.548;2023-02-15T12:48:17;101213.09;;;4.29;83.62
32298;BME280;18782;48.984;8.548;2023-02-15T12:50:46;101211.91;;;4.49;81.95
32298;BME280;18782;48.984;8.548;2023-02-15T12:53:21;101215.25;;;4.48;81.26
32298;BME280;18782;48.984;8.548;2023-02-15T12:55:53;101204.78;;;4.56;81.36
32298;BME280;18782;48.984;8.548;2023-02-15T12:58:23;101196.78;;;4.63;81.04
32298;BME280;18782;48.984;8.548;2023-02-15T13:01:04;101198.28;;;4.73;80.23
32298;BME280;18782;48.984;8.548;2023-02-15T13:03:38;101195.16;;;4.77;81.39
32298;BME280;18782;48.984;8.548;2023-02-15T13:06:06;101202.19;;;4.93;81.57
32298;BME280;18782;48.984;8.548;2023-02-15T13:08:39;101193.88;;;5.09;80.88
32298;BME280;18782;48.984;8.548;2023-02-15T13:11:19;101200.38;;;5.30;80.42
32298;BME280;18782;48.984;8.548;2023-02-15T13:13:51;101190.78;;;5.39;79.60
32298;BME280;18782;48.984;8.548;2023-02-15T13:16:27;101186.09;;;5.59;78.46
32298;BME280;18782;48.984;8.548;2023-02-15T13:18:57;101186.84;;;5.58;77.68
32298;BME280;18782;48.984;8.548;2023-02-15T13:21:31;101173.88;;;5.68;77.54
32298;BME280;18782;48.984;8.548;2023-02-15T13:24:02;101176.41;;;6.08;78.45
32298;BME280;18782;48.984;8.548;2023-02-15T13:26:34;101170.72;;;5.98;77.57
32298;BME280;18782;48.984;8.548;2023-02-15T13:29:06;101173.28;;;6.12;nan
32298;BME280;18782;48.984;8.548;2023-02-15T13:31:35;101175.59;;;6.22;76.80
32298;BME280;18782;48.984;8.548;2023-02-15T13:34:09;101161.78;;;6.33;76.85
32298;BME280;18782;48.984;8.548;2023-02-15T13:36:45;101160.34;;;6.66;75.18
32298;BME280;18782;48.984;8.548;2023-02-15T13:39:21;101150.31;;;7.14;72.61
32298;BME280;18782;48.984;8.548;2023-02-15T13:41:56;101148.50;;;7.26;71.89
32298;BME280;18782;48.984;8.548;2023-02-15T13:44:38;101140.47;;;7.05;70.30
32298;BME280;18782;48.984;8.548;2023-02-15T13:47:17;101144.34;;;7.13;71.26
32298;BME280;18782;48.984;8.548;2023-02-15T13:50:02;101139.84;;;6.94;71.41
32298;BME280;18782;48.984;8.548;2023-02-15T13:52:41;101133.38;;;6.86;72.41
32298;BME280;18782;48.984;8.548;2023-02-15T13:55:23;101133.94;;;6.95;72.04
32298;BME280;18782;48.984;8.548;2023-02-15T13:58:11;101136.56;;;6.82;72.50
32298;BME280;18782;48.984;8.548;2023-02-15T14:00:48;101132.94;;;6.78;71.99
32298;BME280;18782;48.984;8.548;2023-02-15T14:03:40;101138.22;;;6.67;71.86